Time;durP1;ratioP1;P1;durP2;ratioP2;P2;SDS_P1;SDS_P2;PMS_P1;PMS_P2;Temp;Humidity;BMP_temperature;BMP_pressure;BME280_temperature;BME280_humidity;BME280_pressure;Samples;Min_cycle;Max_cycle;Signal;HPM_P1;HPM_P2
2021/09/13 00:01:00;;;;;;;8.25;1.90;;;;;;;13.41;100.00;100668.75;5057097;28;20155;-87
2021/09/13 00:03:25;;;;;;;6.40;1.38;;;;;;;13.46;100.00;100672.09;5075079;28;20097;-86
2021/09/13 00:05:50;;;;;;;4.97;1.48;;;;;;;13.50;100.00;100683.28;5057165;28;20480;-86
2021/09/13 00:08:16;;;;;;;10.80;1.70;;;;;;;13.50;100.00;100676.31;5057223;28;20028;-86
2021/09/13 00:10:43;;;;;;;6.88;1.40;;;;;;;13.54;100.00;100670.09;5056999;28;20043;-86
2021/09/13 00:13:09;;;;;;;6.03;1.42;;;;;;;13.57;100.00;100672.63;5075261;28;20079;-86
2021/09/13 00:15:35;;;;;;;9.77;2.22;;;;;;;13.57;100.00;100670.00;5057262;28;20028;-87
2021/09/13 00:18:01;;;;;;;8.30;1.73;;;;;;;13.56;100.00;100667.47;5056856;28;20016;-86
2021/09/13 00:20:26;;;;;;;5.57;1.40;;;;;;;13.54;100.00;100680.53;5074917;28;20066;-86
2021/09/13 00:22:51;;;;;;;5.63;1.70;;;;;;;13.53;100.00;100676.22;5056917;28;20027;-86
2021/09/13 00:25:16;;;;;;;9.07;1.65;;;;;;;13.52;100.00;100677.13;5056657;28;20035;-88
2021/09/13 00:27:42;;;;;;;8.57;1.85;;;;;;;13.49;100.00;100674.63;5056859;28;20503;-86
2021/09/13 00:30:07;;;;;;;9.70;2.45;;;;;;;13.51;100.00;100674.56;5056601;28;20056;-86
2021/09/13 00:32:33;;;;;;;10.50;1.60;;;;;;;13.53;100.00;100676.22;5056797;28;20036;-86
2021/09/13 00:34:58;;;;;;;7.63;1.70;;;;;;;13.52;100.00;100671.91;5056671;28;20021;-86
2021/09/13 00:37:23;;;;;;;7.57;2.10;;;;;;;13.52;100.00;100669.31;5056570;28;20032;-86
2021/09/13 00:39:49;;;;;;;6.40;1.73;;;;;;;13.47;100.00;100671.19;5074377;28;20027;-88
2021/09/13 00:42:14;;;;;;;7.30;1.90;;;;;;;13.43;100.00;100669.56;5074601;28;20043;-86
2021/09/13 00:44:39;;;;;;;8.63;1.90;;;;;;;13.37;100.00;100674.09;5056959;28;20060;-86
2021/09/13 00:47:05;;;;;;;7.97;2.17;;;;;;;13.37;100.00;100669.75;5056441;28;20029;-86
2021/09/13 00:49:30;;;;;;;8.82;1.88;;;;;;;13.29;100.00;100675.16;5056364;28;20028;-86
2021/09/13 00:51:55;;;;;;;7.18;2.00;;;;;;;13.33;100.00;100670.72;5056357;28;20050;-86
2021/09/13 00:54:21;;;;;;;9.10;2.17;;;;;;;13.38;100.00;100679.25;5057126;28;20027;-86
2021/09/13 00:56:47;;;;;;;10.43;2.45;;;;;;;13.26;100.00;100674.38;5074200;28;20035;-86
2021/09/13 00:59:12;;;;;;;8.95;2.20;;;;;;;13.28;100.00;100670.84;5056022;28;20040;-86
2021/09/13 01:01:38;;;;;;;10.40;2.67;;;;;;;13.33;100.00;100668.97;5056865;28;20024;-86
2021/09/13 01:04:04;;;;;;;7.07;2.10;;;;;;;13.35;100.00;100668.94;5056088;28;20388;-86
2021/09/13 01:06:30;;;;;;;8.68;2.20;;;;;;;13.28;100.00;100663.03;5074070;28;20485;-85
2021/09/13 01:08:55;;;;;;;12.13;2.50;;;;;;;13.28;100.00;100668.25;5057470;28;20074;-86
2021/09/13 01:11:20;;;;;;;9.77;2.50;;;;;;;13.31;100.00;100677.72;5057074;28;20025;-85
2021/09/13 01:13:47;;;;;;;9.43;2.60;;;;;;;13.30;100.00;100665.59;5074782;28;20495;-86
2021/09/13 01:16:12;;;;;;;10.40;2.45;;;;;;;13.35;100.00;100674.97;5056690;28;20074;-86
2021/09/13 01:18:37;;;;;;;13.10;2.33;;;;;;;13.37;100.00;100671.50;5056549;28;20063;-86
2021/09/13 01:21:04;;;;;;;12.10;3.05;;;;;;;13.33;100.00;100675.91;5055933;28;20087;-86
2021/09/13 01:23:35;;;;;;;8.23;2.40;;;;;;;13.34;100.00;100673.28;5056103;28;20537;-86
2021/09/13 01:26:02;;;;;;;9.15;2.85;;;;;;;13.38;100.00;100679.25;5057875;28;20028;-86
2021/09/13 01:28:27;;;;;;;9.95;2.80;;;;;;;13.34;100.00;100670.69;5074883;28;20487;-86
2021/09/13 01:30:53;;;;;;;10.15;3.10;;;;;;;13.39;100.00;100670.53;5056153;28;20057;-87
2021/09/13 01:33:20;;;;;;;7.97;3.35;;;;;;;13.32;100.00;100676.81;5055685;28;20024;-86
2021/09/13 01:35:46;;;;;;;11.82;3.65;;;;;;;13.35;100.00;100671.53;5055534;28;20032;-86
2021/09/13 01:38:12;;;;;;;10.40;3.88;;;;;;;13.42;100.00;100667.00;5055528;28;20020;-86
2021/09/13 01:40:37;;;;;;;11.68;4.00;;;;;;;13.43;100.00;100669.56;5056298;28;20031;-86
2021/09/13 01:43:03;;;;;;;10.63;3.70;;;;;;;13.40;100.00;100667.06;5073442;28;20032;-86
2021/09/13 01:45:28;;;;;;;11.05;3.95;;;;;;;13.48;100.00;100675.50;5055580;28;20033;-86
2021/09/13 01:47:54;;;;;;;12.70;4.15;;;;;;;13.52;100.00;100674.53;5055606;28;20035;-86
2021/09/13 01:50:20;;;;;;;10.75;3.38;;;;;;;13.47;100.00;100676.41;5055320;28;20020;-87
2021/09/13 01:52:46;;;;;;;12.82;4.10;;;;;;;13.44;100.00;100679.09;5055359;28;20020;-87
2021/09/13 01:55:11;;;;;;;9.35;3.13;;;;;;;13.48;100.00;100678.09;5055415;28;20038;-86
2021/09/13 01:57:36;;;;;;;11.80;4.20;;;;;;;13.46;100.00;100677.31;5055365;28;20112;-86
2021/09/13 02:00:03;;;;;;;10.75;3.75;;;;;;;13.44;100.00;100671.28;5055090;28;20303;-87
2021/09/13 02:02:28;;;;;;;12.50;3.97;;;;;;;13.42;100.00;100677.41;5055203;28;20492;-86
2021/09/13 02:04:54;;;;;;;7.85;4.13;;;;;;;13.40;100.00;100672.25;5073142;28;20037;-86
2021/09/13 02:07:19;;;;;;;9.07;4.00;;;;;;;13.43;100.00;100677.38;5055189;28;20028;-86
2021/09/13 02:09:44;;;;;;;10.25;4.75;;;;;;;13.46;100.00;100676.47;5055150;28;20099;-86
2021/09/13 02:12:10;;;;;;;13.57;4.53;;;;;;;13.51;100.00;100680.63;5055070;28;20025;-86
2021/09/13 02:14:35;;;;;;;9.73;3.70;;;;;;;13.46;100.00;100677.31;5055154;28;20021;-86
2021/09/13 02:17:00;;;;;;;9.77;4.47;;;;;;;13.47;100.00;100675.56;5055200;28;20024;-87
2021/09/13 02:19:26;;;;;;;10.32;4.53;;;;;;;13.47;100.00;100684.22;5073502;28;20029;-87
2021/09/13 02:21:52;;;;;;;8.70;4.00;;;;;;;13.48;100.00;100680.69;5055244;28;20055;-87
2021/09/13 02:24:17;;;;;;;11.50;4.43;;;;;;;13.47;100.00;100684.22;5055009;28;20025;-87
2021/09/13 02:26:43;;;;;;;12.00;4.43;;;;;;;13.48;100.00;100690.28;5055089;28;20036;-86
2021/09/13 02:29:08;;;;;;;12.88;5.30;;;;;;;13.41;100.00;100696.56;5076119;28;20499;-86
2021/09/13 02:31:34;;;;;;;13.98;5.88;;;;;;;13.39;100.00;100695.75;5059147;28;20400;-87
2021/09/13 02:33:59;;;;;;;10.00;5.75;;;;;;;13.41;100.00;100704.38;5058888;28;20510;-86
2021/09/13 02:36:24;;;;;;;11.02;5.85;;;;;;;13.38;100.00;100705.31;5076754;28;20100;-86
2021/09/13 02:38:49;;;;;;;9.30;5.55;;;;;;;13.42;100.00;100700.88;5059065;28;20128;-86
2021/09/13 02:41:15;;;;;;;10.07;5.32;;;;;;;13.40;100.00;100713.94;5076632;28;20036;-86
2021/09/13 02:43:40;;;;;;;14.85;5.70;;;;;;;13.42;100.00;100706.06;5058688;28;20020;-86
2021/09/13 02:46:05;;;;;;;12.85;6.05;;;;;;;13.38;100.00;100710.53;5076751;28;20024;-86
2021/09/13 02:48:31;;;;;;;16.85;6.10;;;;;;;13.34;100.00;100714.97;5058689;28;20024;-86
2021/09/13 02:50:56;;;;;;;12.93;5.68;;;;;;;13.33;100.00;100715.00;5076437;28;20052;-86
2021/09/13 02:53:21;;;;;;;13.57;5.63;;;;;;;13.34;100.00;100721.94;5076810;28;20032;-86
2021/09/13 02:55:46;;;;;;;10.45;5.65;;;;;;;13.41;100.00;100720.00;5076456;28;20477;-86
2021/09/13 02:58:12;;;;;;;10.30;4.82;;;;;;;13.39;100.00;100717.44;5076600;28;20112;-86
2021/09/13 03:00:37;;;;;;;12.40;5.35;;;;;;;13.41;100.00;100723.47;5058231;28;20028;-86
2021/09/13 03:03:02;;;;;;;13.23;5.72;;;;;;;13.44;100.00;100725.13;5058370;28;20024;-86
2021/09/13 03:05:28;;;;;;;13.63;6.00;;;;;;;13.43;100.00;100726.91;5058375;28;20082;-86
2021/09/13 03:07:53;;;;;;;14.05;5.70;;;;;;;13.36;100.00;100722.72;5076180;28;20444;-86
2021/09/13 03:10:18;;;;;;;12.77;6.28;;;;;;;13.38;100.00;100726.16;5058274;28;20036;-85
2021/09/13 03:12:43;;;;;;;12.25;5.50;;;;;;;13.29;100.00;100727.25;5058246;28;20031;-86
2021/09/13 03:15:10;;;;;;;12.57;5.57;;;;;;;13.30;100.00;100734.19;5058260;28;20119;-86
2021/09/13 03:17:36;;;;;;;12.57;5.60;;;;;;;13.31;100.00;100737.66;5058104;28;20021;-86
2021/09/13 03:20:02;;;;;;;10.25;5.32;;;;;;;13.29;100.00;100729.84;5058067;28;20545;-86
2021/09/13 03:22:27;;;;;;;12.68;6.38;;;;;;;13.34;100.00;100740.16;5058580;28;20027;-86
2021/09/13 03:24:53;;;;;;;14.43;5.93;;;;;;;13.32;100.00;100728.94;5058076;28;20028;-86
2021/09/13 03:27:18;;;;;;;12.32;6.72;;;;;;;13.34;100.00;100727.16;5058014;28;20477;-86
2021/09/13 03:29:43;;;;;;;8.95;5.57;;;;;;;13.35;100.00;100736.66;5075785;28;20021;-86
2021/09/13 03:32:09;;;;;;;11.90;5.40;;;;;;;13.38;100.00;100733.97;5057842;28;20020;-86
2021/09/13 03:34:34;;;;;;;13.10;5.65;;;;;;;13.31;100.00;100728.06;5057860;28;20093;-86
2021/09/13 03:37:01;;;;;;;10.27;5.25;;;;;;;13.33;100.00;100734.09;5057999;28;20025;-86
2021/09/13 03:39:27;;;;;;;13.63;6.07;;;;;;;13.28;100.00;100732.53;5057084;28;20105;-86
2021/09/13 03:41:52;;;;;;;22.38;6.50;;;;;;;13.31;100.00;100735.03;5075543;28;20063;-86
2021/09/13 03:44:17;;;;;;;10.68;5.38;;;;;;;13.36;100.00;100733.16;5057577;28;20146;-86
2021/09/13 03:46:42;;;;;;;13.35;5.68;;;;;;;13.37;100.00;100724.47;5057587;28;20032;-86
2021/09/13 03:49:08;;;;;;;13.10;5.60;;;;;;;13.35;100.00;100721.03;5057369;28;20094;-86
2021/09/13 03:51:34;;;;;;;11.10;5.15;;;;;;;13.37;100.00;100726.22;5075561;28;20039;-86
2021/09/13 03:54:01;;;;;;;12.90;5.85;;;;;;;13.32;100.00;100727.16;5057966;28;20048;-86
2021/09/13 03:56:26;;;;;;;12.77;5.30;;;;;;;13.39;100.00;100727.84;5057474;28;20024;-86
2021/09/13 03:58:51;;;;;;;10.55;5.25;;;;;;;13.35;100.00;100727.09;5075587;28;20127;-86
2021/09/13 04:01:17;;;;;;;14.65;5.55;;;;;;;13.39;100.00;100727.84;5072930;22;20488;-82
2021/09/13 04:03:46;;;;;;;11.90;5.70;;;;;;;13.35;100.00;100728.84;5040600;28;20033;-82
2021/09/13 04:06:23;;;;;;;11.60;5.60;;;;;;;13.37;100.00;100732.28;5057118;28;20393;-82
2021/09/13 04:09:05;;;;;;;11.55;5.95;;;;;;;13.39;100.00;100727.00;5056490;28;20025;-84
2021/09/13 04:11:48;;;;;;;14.98;5.65;;;;;;;13.34;100.00;100724.53;5038929;28;20059;-83
2021/09/13 04:14:15;;;;;;;16.80;5.38;;;;;;;13.18;100.00;100723.19;5056620;28;20031;-83
2021/09/13 04:16:41;;;;;;;11.32;5.57;;;;;;;13.14;100.00;100723.25;5040181;28;20035;-83
2021/09/13 04:19:06;;;;;;;11.55;5.38;;;;;;;13.09;100.00;100719.94;5059605;28;20535;-83
2021/09/13 04:21:31;;;;;;;15.05;5.70;;;;;;;13.10;100.00;100726.00;5060956;28;20025;-83
2021/09/13 04:23:56;;;;;;;11.15;5.40;;;;;;;13.10;100.00;100726.00;5060672;28;20131;-83
2021/09/13 04:26:22;;;;;;;8.30;5.45;;;;;;;13.14;100.00;100723.25;5061229;28;20021;-83
2021/09/13 04:28:47;;;;;;;11.90;5.40;;;;;;;13.09;100.00;100717.34;5043982;28;20045;-84
2021/09/13 04:31:12;;;;;;;10.48;5.22;;;;;;;13.12;100.00;100719.00;5061000;28;20028;-83
2021/09/13 04:33:37;;;;;;;12.88;5.90;;;;;;;13.02;100.00;100723.63;5042720;28;20029;-82
2021/09/13 04:36:03;;;;;;;9.65;5.82;;;;;;;13.05;100.00;100720.94;5041542;28;20051;-83
2021/09/13 04:38:28;;;;;;;13.80;6.65;;;;;;;13.05;100.00;100731.34;5040824;28;20024;-83
2021/09/13 04:40:54;;;;;;;12.15;6.50;;;;;;;13.08;100.00;100723.47;5041852;28;20025;-83
2021/09/13 04:43:19;;;;;;;12.95;6.53;;;;;;;13.12;100.00;100717.25;5041703;28;20037;-83
2021/09/13 04:45:44;;;;;;;13.68;6.65;;;;;;;13.14;100.00;100722.41;5059580;28;20051;-83
2021/09/13 04:48:09;;;;;;;11.68;6.85;;;;;;;13.11;100.00;100723.34;5040839;28;20021;-84
2021/09/13 04:50:35;;;;;;;14.45;7.55;;;;;;;13.13;100.00;100724.16;5040004;28;20060;-83
2021/09/13 04:53:00;;;;;;;13.13;6.93;;;;;;;13.16;100.00;100717.19;5041857;28;20025;-83
2021/09/13 04:55:25;;;;;;;12.73;6.35;;;;;;;13.21;100.00;100717.88;5059570;28;20052;-83
2021/09/13 04:57:50;;;;;;;15.05;6.80;;;;;;;13.19;100.00;100725.75;5061008;28;20400;-83
2021/09/13 05:00:16;;;;;;;12.13;6.22;;;;;;;13.25;100.00;100724.78;5041925;28;20039;-83
2021/09/13 05:02:41;;;;;;;13.27;7.00;;;;;;;13.28;100.00;100722.09;5047197;28;20103;-83
2021/09/13 05:05:07;;;;;;;14.82;7.35;;;;;;;13.30;100.00;100725.50;5062794;28;20032;-81
2021/09/13 05:07:33;;;;;;;18.73;8.00;;;;;;;13.30;100.00;100722.88;5048041;28;20028;-83
2021/09/13 05:09:58;;;;;;;14.48;7.40;;;;;;;13.32;100.00;100731.53;5041811;28;20432;-83
2021/09/13 05:12:23;;;;;;;13.50;7.00;;;;;;;13.41;100.00;100730.44;5042172;28;20025;-83
2021/09/13 05:14:48;;;;;;;19.02;7.30;;;;;;;13.29;100.00;100731.63;5061006;28;20029;-83
2021/09/13 05:17:14;;;;;;;11.70;7.28;;;;;;;13.33;100.00;100738.44;5045006;28;20448;-83
2021/09/13 05:19:39;;;;;;;12.35;7.55;;;;;;;13.40;100.00;100740.00;5044558;28;20027;-83
2021/09/13 05:22:04;;;;;;;14.20;6.80;;;;;;;13.39;100.00;100747.84;5063249;28;20017;-83
2021/09/13 05:24:30;;;;;;;14.35;6.90;;;;;;;13.48;100.00;100737.19;5044443;28;20029;-83
2021/09/13 05:26:55;;;;;;;19.48;7.18;;;;;;;13.51;100.00;100737.09;5043988;28;20032;-83
2021/09/13 05:29:20;;;;;;;11.60;6.60;;;;;;;13.61;100.00;100733.34;5043904;28;20063;-84
2021/09/13 05:31:46;;;;;;;10.90;5.80;;;;;;;13.62;100.00;100744.63;5061322;28;20025;-83
2021/09/13 05:34:11;;;;;;;13.18;5.95;;;;;;;13.63;100.00;100741.13;5062922;28;20094;-83
2021/09/13 05:36:37;;;;;;;10.68;5.18;;;;;;;13.68;100.00;100749.66;5045709;28;20032;-83
2021/09/13 05:39:02;;;;;;;14.30;5.93;;;;;;;13.77;100.00;100744.19;5062942;28;20029;-83
2021/09/13 05:41:28;;;;;;;13.43;5.72;;;;;;;13.75;100.00;100751.19;5045640;28;20031;-83
2021/09/13 05:43:53;;;;;;;16.25;5.72;;;;;;;13.77;100.00;100745.03;5046580;28;20071;-83
2021/09/13 05:46:18;;;;;;;12.35;5.38;;;;;;;13.84;100.00;100750.94;5045251;28;20053;-83
2021/09/13 05:48:44;;;;;;;14.70;5.03;;;;;;;13.92;100.00;100746.38;5044927;28;20504;-83
2021/09/13 05:51:09;;;;;;;15.80;5.40;;;;;;;13.95;100.00;100748.88;5045593;28;20029;-83
2021/09/13 05:53:34;;;;;;;14.38;5.93;;;;;;;14.00;100.00;100756.56;5046661;28;20025;-83
2021/09/13 05:55:59;;;;;;;9.38;4.72;;;;;;;14.01;100.00;100756.53;5047005;28;20056;-83
2021/09/13 05:58:25;;;;;;;12.15;5.43;;;;;;;14.02;100.00;100763.44;5046569;28;20021;-83
2021/09/13 06:00:50;;;;;;;11.00;5.53;;;;;;;14.02;100.00;100766.06;5047281;28;20366;-82
2021/09/13 06:03:15;;;;;;;11.13;4.68;;;;;;;14.07;100.00;100763.31;5046826;28;20078;-82
2021/09/13 06:05:41;;;;;;;11.00;4.30;;;;;;;14.02;100.00;100766.06;5048970;28;20051;-82
2021/09/13 06:08:06;;;;;;;9.82;4.65;;;;;;;14.01;100.00;100766.97;5047717;28;20021;-83
2021/09/13 06:10:31;;;;;;;14.32;4.65;;;;;;;14.02;100.00;100758.22;5056746;28;20432;-84
2021/09/13 06:12:56;;;;;;;12.55;4.97;;;;;;;14.06;100.00;100766.81;5056593;28;20025;-84
2021/09/13 06:15:22;;;;;;;14.05;5.07;;;;;;;14.13;100.00;100770.09;5038728;28;20021;-84
2021/09/13 06:17:47;;;;;;;11.98;4.78;;;;;;;14.25;100.00;100769.72;5044705;28;20025;-83
2021/09/13 06:20:13;;;;;;;11.25;4.43;;;;;;;14.30;100.00;100775.66;5065002;28;20078;-82
2021/09/13 06:22:39;;;;;;;9.15;4.18;;;;;;;14.18;100.00;100776.03;5063612;28;20025;-82
2021/09/13 06:25:04;;;;;;;10.25;4.13;;;;;;;14.36;100.00;100774.63;5064636;28;20084;-81
2021/09/13 06:27:30;;;;;;;11.13;4.05;;;;;;;14.47;100.00;100770.81;5047176;28;20017;-81
2021/09/13 06:29:55;;;;;;;11.30;4.70;;;;;;;14.67;100.00;100774.56;5046375;28;20049;-81
2021/09/13 06:32:20;;;;;;;10.38;3.92;;;;;;;14.78;100.00;100776.81;5064841;28;20096;-83
2021/09/13 06:34:46;;;;;;;13.50;4.20;;;;;;;14.87;100.00;100782.63;5049776;28;20112;-82
2021/09/13 06:37:11;;;;;;;10.35;4.05;;;;;;;14.90;100.00;100782.53;5049812;28;20017;-82
2021/09/13 06:39:36;;;;;;;9.70;3.65;;;;;;;14.94;100.00;100784.13;5049803;28;20130;-82
2021/09/13 06:42:03;;;;;;;10.85;3.65;;;;;;;14.90;100.00;100782.53;5066939;28;20025;-82
2021/09/13 06:44:29;;;;;;;10.43;3.42;;;;;;;14.76;100.00;100787.34;5066652;28;20400;-82
2021/09/13 06:47:09;;;;;;;9.10;3.08;;;;;;;14.68;100.00;100791.94;5042291;28;20032;-84
2021/09/13 06:49:35;;;;;;;10.30;2.47;;;;;;;14.68;100.00;100797.16;5036827;28;20381;-84
2021/09/13 06:52:02;;;;;;;10.48;3.70;;;;;;;14.72;100.00;100798.78;5053731;28;20456;-83
2021/09/13 06:54:27;;;;;;;8.13;2.65;;;;;;;14.77;100.00;100796.00;5035449;28;20035;-84
2021/09/13 06:56:55;;;;;;;9.52;2.72;;;;;;;14.80;100.00;100799.38;5035244;28;20107;-84
2021/09/13 06:59:20;;;;;;;10.75;2.60;;;;;;;14.80;100.00;100807.22;5035375;28;20021;-84
2021/09/13 07:01:46;;;;;;;10.13;3.05;;;;;;;14.78;100.00;100811.66;5035302;28;20033;-84
2021/09/13 07:04:11;;;;;;;10.15;3.22;;;;;;;14.90;100.00;100803.44;5035374;28;20045;-84
2021/09/13 07:06:37;;;;;;;8.98;2.63;;;;;;;14.89;100.00;100808.69;5053153;28;20034;-84
2021/09/13 07:09:02;;;;;;;9.15;2.78;;;;;;;15.08;100.00;100811.53;5035464;28;20036;-84
2021/09/13 07:11:27;;;;;;;10.15;2.90;;;;;;;15.32;100.00;100815.09;5035219;28;20071;-84
2021/09/13 07:13:53;;;;;;;8.70;2.80;;;;;;;15.36;100.00;100809.75;5036376;28;20021;-84
2021/09/13 07:16:20;;;;;;;12.77;2.72;;;;;;;15.27;100.00;100814.41;5038727;28;20401;-84
2021/09/13 07:18:45;;;;;;;12.38;2.63;;;;;;;15.31;100.00;100814.25;5039215;28;20029;-84
2021/09/13 07:21:11;;;;;;;12.20;2.60;;;;;;;15.37;100.00;100815.81;5056642;28;20046;-84
2021/09/13 07:23:36;;;;;;;9.30;2.40;;;;;;;15.40;100.00;100816.56;5057926;28;20037;-84
2021/09/13 07:26:01;;;;;;;10.50;2.20;;;;;;;15.31;100.00;100823.88;5079457;28;20009;-82
2021/09/13 07:28:26;;;;;;;8.02;1.70;;;;;;;15.38;100.00;100820.13;5054044;28;20294;-84
2021/09/13 07:30:52;;;;;;;7.60;1.77;;;;;;;15.41;100.00;100826.09;5038568;28;20397;-84
2021/09/13 07:33:17;;;;;;;9.57;2.45;;;;;;;15.35;100.00;100825.47;5056473;28;20111;-84
2021/09/13 07:35:42;;;;;;;6.72;1.70;;;;;;;15.53;100.00;100826.59;5038654;28;20036;-85
2021/09/13 07:38:07;;;;;;;7.80;2.00;;;;;;;15.47;100.00;100832.03;5038817;28;20400;-84
2021/09/13 07:40:33;;;;;;;10.95;2.20;;;;;;;15.39;100.00;100833.16;5056215;28;20021;-85
2021/09/13 07:42:58;;;;;;;7.93;2.20;;;;;;;15.41;100.00;100826.09;5038356;28;20024;-85
2021/09/13 07:45:24;;;;;;;7.40;1.55;;;;;;;15.36;100.00;100832.38;5038151;28;20560;-85
2021/09/13 07:47:51;;;;;;;5.93;1.40;;;;;;;15.18;100.00;100839.09;5038330;28;20027;-85
2021/09/13 07:50:17;;;;;;;6.38;1.65;;;;;;;15.12;100.00;100834.91;5038115;28;20021;-84
2021/09/13 07:52:42;;;;;;;6.72;1.30;;;;;;;15.22;100.00;100845.94;5037951;28;20017;-84
2021/09/13 07:55:08;;;;;;;7.47;1.73;;;;;;;15.32;100.00;100852.53;5055767;28;20028;-85
2021/09/13 07:57:33;;;;;;;5.15;1.10;;;;;;;15.44;100.00;100856.50;5055548;28;20025;-85
2021/09/13 07:59:58;;;;;;;9.43;1.30;;;;;;;15.58;100.00;100853.44;5055926;28;20389;-84
2021/09/13 08:02:25;;;;;;;7.95;1.40;;;;;;;15.53;100.00;100850.97;5055719;28;20021;-85
2021/09/13 08:04:50;;;;;;;5.28;1.10;;;;;;;15.58;100.00;100850.84;5037893;28;20033;-85
2021/09/13 08:07:16;;;;;;;10.02;1.55;;;;;;;15.51;100.00;100854.53;5038030;28;20025;-85
2021/09/13 08:09:41;;;;;;;7.93;1.15;;;;;;;15.45;100.00;100852.13;5056448;28;20021;-85
2021/09/13 08:12:06;;;;;;;5.95;1.23;;;;;;;15.45;100.00;100854.75;5038614;28;20137;-85
2021/09/13 08:14:32;;;;;;;6.03;1.17;;;;;;;15.94;100.00;100858.31;5038587;28;20499;-85
2021/09/13 08:16:57;;;;;;;8.70;0.98;;;;;;;15.86;100.00;100861.22;5039121;28;20476;-85
2021/09/13 08:19:22;;;;;;;7.07;1.38;;;;;;;16.00;100.00;100860.72;5038640;28;20029;-85
2021/09/13 08:21:48;;;;;;;6.10;1.50;;;;;;;16.08;100.00;100869.16;5038652;28;20017;-85
2021/09/13 08:24:13;;;;;;;10.43;1.92;;;;;;;15.79;100.00;100871.00;5056716;28;20056;-85
2021/09/13 08:26:41;;;;;;;6.00;1.10;;;;;;;15.71;100.00;100873.06;5038635;28;20028;-85
2021/09/13 08:29:10;;;;;;;12.35;1.33;;;;;;;15.56;100.00;100878.78;5056693;28;20083;-85
2021/09/13 08:31:37;;;;;;;8.05;0.98;;;;;;;15.70;100.00;100883.56;5038337;28;20017;-85
2021/09/13 08:34:02;;;;;;;5.95;1.05;;;;;;;15.73;100.00;100878.22;5038305;28;20473;-85
2021/09/13 08:36:27;;;;;;;8.77;1.42;;;;;;;15.76;100.00;100881.59;5056246;28;20056;-85
2021/09/13 08:38:52;;;;;;;5.43;1.20;;;;;;;15.59;100.00;100892.59;5038288;28;20116;-85
2021/09/13 08:41:18;;;;;;;6.45;1.05;;;;;;;15.84;100.00;100897.88;5038010;28;20027;-85
2021/09/13 08:43:44;;;;;;;5.93;1.20;;;;;;;16.16;100.00;100903.72;5038178;28;20040;-85
2021/09/13 08:46:17;;;;;;;7.45;1.40;;;;;;;16.24;100.00;100906.94;5038197;28;20464;-85
2021/09/13 08:48:48;;;;;;;8.43;1.63;;;;;;;16.45;100.00;100899.22;5038301;28;20055;-85
2021/09/13 08:53:53;;;;;;;5.45;1.20;;;;;;;16.46;100.00;100914.00;5055985;28;20120;-85
2021/09/13 08:56:18;;;;;;;6.53;1.15;;;;;;;16.28;100.00;100908.53;5038184;28;20050;-85
2021/09/13 08:58:45;;;;;;;6.32;1.20;;;;;;;16.22;100.00;100913.97;5038535;28;20469;-85
2021/09/13 09:01:14;;;;;;;3.65;0.88;;;;;;;16.33;100.00;100921.47;5037479;28;20481;-85
2021/09/13 09:03:43;;;;;;;5.57;1.25;;;;;;;16.53;100.00;100912.84;5055721;28;20469;-85
2021/09/13 09:06:28;;;;;;;5.55;1.00;;;;;;;16.36;100.00;100915.25;5055667;28;20031;-85
2021/09/13 09:09:04;;;;;;;8.85;1.42;;;;;;;16.67;100.00;100914.97;5055864;28;20578;-85
2021/09/13 09:11:53;;;;;;;7.70;1.73;;;;;;;16.18;100.00;100917.63;5038458;28;20025;-85
2021/09/13 09:14:45;;;;;;;6.35;1.42;;;;;;;15.79;100.00;100918.09;5037612;28;20024;-85
2021/09/13 09:17:31;;;;;;;9.13;1.30;;;;;;;15.65;100.00;100918.53;5037881;28;20500;-85
2021/09/13 09:20:03;;;;;;;8.55;1.40;;;;;;;15.63;100.00;100922.09;5037298;28;20037;-85
2021/09/13 09:22:30;;;;;;;6.55;1.60;;;;;;;15.44;100.00;100929.72;5037085;28;20455;-85
2021/09/13 09:24:58;;;;;;;9.52;1.70;;;;;;;15.52;100.00;100935.56;5037678;28;20032;-85
2021/09/13 09:27:25;;;;;;;5.88;1.17;;;;;;;15.33;100.00;100937.03;5037292;28;20043;-85
2021/09/13 09:29:50;;;;;;;5.20;1.17;;;;;;;15.63;100.00;100929.94;5055204;28;20040;-84
2021/09/13 09:32:24;;;;;;;8.55;1.48;;;;;;;15.92;100.00;100930.75;5037241;28;20043;-85
2021/09/13 09:34:52;;;;;;;11.35;1.38;;;;;;;16.12;100.00;100936.16;5037698;28;20020;-85
2021/09/13 09:37:18;;;;;;;11.57;2.58;;;;;;;16.64;100.00;100936.03;5054404;28;20024;-85
2021/09/13 09:39:49;;;;;;;6.57;1.20;;;;;;;17.01;100.00;100930.28;5037179;28;20084;-85
2021/09/13 09:42:34;;;;;;;6.15;1.02;;;;;;;16.80;100.00;100938.03;5036950;28;20052;-85
2021/09/13 09:45:23;;;;;;;4.90;1.35;;;;;;;16.77;100.00;100932.06;5038533;28;20067;-85
2021/09/13 09:48:09;;;;;;;6.15;1.02;;;;;;;17.03;100.00;100934.56;5061865;28;20013;-83
2021/09/13 09:50:35;;;;;;;5.32;0.80;;;;;;;17.25;100.00;100926.69;5044066;28;20028;-85
2021/09/13 09:53:15;;;;;;;6.13;1.40;;;;;;;17.59;100.00;100927.94;5037298;28;20021;-85
2021/09/13 09:55:40;;;;;;;7.97;1.20;;;;;;;17.68;100.00;100929.34;5036919;28;20591;-85
2021/09/13 09:58:13;;;;;;;5.45;0.82;;;;;;;17.10;100.00;100916.81;5037101;28;20025;-85
2021/09/13 10:00:39;;;;;;;4.93;1.00;;;;;;;16.56;100.00;100918.88;5036664;28;20396;-85
2021/09/13 10:03:05;;;;;;;6.65;1.00;;;;;;;16.82;100.00;100914.44;5111831;22;20048;-90
2021/09/13 10:05:32;;;;;;;7.28;1.05;;;;;;;16.84;100.00;100906.50;5076177;28;20027;-90
2021/09/13 10:07:58;;;;;;;6.05;1.00;;;;;;;17.04;100.00;100911.81;5075488;28;20024;-90
2021/09/13 10:10:29;;;;;;;3.53;0.90;;;;;;;17.39;100.00;100914.78;5075093;28;20497;-90
2021/09/13 10:12:54;;;;;;;5.43;0.95;;;;;;;17.18;100.00;100921.75;5076018;28;20020;-89
2021/09/13 10:15:19;;;;;;;7.15;0.98;;;;;;;17.29;100.00;100926.56;5093163;28;20395;-88
2021/09/13 10:17:45;;;;;;;3.13;0.98;;;;;;;17.86;100.00;100919.88;5075484;28;20020;-90
2021/09/13 10:20:11;;;;;;;5.75;1.33;;;;;;;18.40;100.00;100913.94;5075951;28;20016;-89
2021/09/13 10:22:41;;;;;;;6.25;1.20;;;;;;;17.96;100.00;100915.94;5075131;28;20020;-88
2021/09/13 10:25:08;;;;;;;3.42;0.85;;;;;;;18.66;100.00;100916.31;5074988;28;20047;-89
2021/09/13 10:27:40;;;;;;;2.00;0.60;;;;;;;18.66;100.00;100916.31;5074855;28;20074;-89
2021/09/13 10:30:15;;;;;;;3.90;0.82;;;;;;;18.46;100.00;100911.97;5074931;28;20024;-89
2021/09/13 10:32:42;;;;;;;5.07;0.73;;;;;;;18.26;100.00;100912.88;5093072;28;20020;-88
2021/09/13 10:35:08;;;;;;;5.00;0.70;;;;;;;18.18;100.00;100905.34;5075146;28;20020;-89
2021/09/13 10:37:44;;;;;;;2.67;0.68;;;;;;;18.01;100.00;100913.97;5074871;28;20422;-89
2021/09/13 10:40:15;;;;;;;8.05;1.10;;;;;;;17.71;100.00;100919.56;5074888;28;20027;-89
2021/09/13 10:42:51;;;;;;;3.15;0.90;;;;;;;17.70;100.00;100927.47;5074599;28;20032;-89
2021/09/13 10:45:20;;;;;;;6.40;1.10;;;;;;;17.38;100.00;100918.34;5075939;28;20360;-89
2021/09/13 10:48:08;;;;;;;5.15;0.80;;;;;;;17.06;100.00;100920.47;5074843;28;20078;-89
2021/09/13 10:50:51;;;;;;;4.78;0.90;;;;;;;17.15;100.00;100917.50;5068239;28;20043;-89
2021/09/13 10:53:16;;;;;;;4.53;0.70;;;;;;;17.09;100.00;100920.38;5078454;28;20103;-88
2021/09/13 10:55:43;;;;;;;4.00;0.90;;;;;;;17.02;100.00;100918.88;5079213;28;20533;-88
2021/09/13 10:58:13;;;;;;;3.75;0.85;;;;;;;16.79;100.00;100923.25;5096700;28;20039;-89
2021/09/13 11:00:44;;;;;;;3.70;0.70;;;;;;;16.54;100.00;100918.06;5097156;28;20539;-88
2021/09/13 11:03:22;;;;;;;3.50;0.90;;;;;;;16.55;100.00;100921.53;5096311;28;20404;-89
2021/09/13 11:06:03;;;;;;;4.43;1.02;;;;;;;16.57;100.00;100919.72;5078317;28;20030;-89
2021/09/13 11:08:28;;;;;;;6.45;1.05;;;;;;;16.81;100.00;100925.81;5078293;28;20156;-89
2021/09/13 11:10:53;;;;;;;7.18;1.20;;;;;;;16.92;100.00;100920.16;5078307;28;20016;-88
2021/09/13 11:13:19;;;;;;;7.88;1.38;;;;;;;17.34;100.00;100925.47;5078186;28;20047;-89
2021/09/13 11:15:50;;;;;;;4.82;1.00;;;;;;;17.89;100.00;100928.47;5078607;28;20020;-89